Terminal Aerodrome Forecast
Issued by NWS Flagstaff, AZ

Home | Current Version | Previous Version | Text Only | Print | Product List | Glossary On
Versions: 1 2 3 4 5 6 7 8 9 10 11 12 13 14 15 16 17 18 19 20 21 22
000
FTUS45 KFGZ 292230 AAB
TAFFLG
TAF AMD
KFLG 292230Z 2922/3018 28007KT P6SM VCTS SCT050CB BKN100
      TEMPO 2923/3002 VRB10G15KT P6SM -TSRA BKN050CB OVC080
     FM300300 VRB05KT P6SM SCT100 BKN120
     FM300600 VRB03KT P6SM FEW120=

USA.gov is the U.S. government's official web portal to all federal, state and local government web resources and services.